Crews, Texas
Current Conditions -  °F | °C
As of 1:58 AM on Thursday 18 Dec 2014 (Local Time) from KDYS Reporting Station
Clear Clear  
Wind Chill: 43°   Ceiling: Unl
Heat Index: 47°   Visibility: 10mi
Dew Point: 42°   Wind: 7mph
Humidity: 83%   Direction: 180°S
Pressure: 30.04"   Gusts: NA
Location:  31.975°N, 99.9034°W
Report Text: KDYS 180758Z AUTO 18006KT 10SM CLR 08/05 A3004 RMK AO2 SLP167 T00810053
Loading
Personal Weather Stations






























Interactive Weather Map New forecast layout! Learn more

10-Day Weather Forecast

Advertisements
Track Severe Weather on mobile